sensor_id;sensor_type;location;lat;lon;timestamp;P1;P2;P0
73241;PMS5003;65659;49.234;-2.094;2023-08-24T00:01:35;3;3;
73241;PMS5003;65659;49.234;-2.094;2023-08-24T00:04:00;4;4;
73241;PMS5003;65659;49.234;-2.094;2023-08-24T00:06:25;6;6;
73241;PMS5003;65659;49.234;-2.094;2023-08-24T00:08:51;4;4;
73241;PMS5003;65659;49.234;-2.094;2023-08-24T00:11:17;3;3;
73241;PMS5003;65659;49.234;-2.094;2023-08-24T00:13:42;4;4;
73241;PMS5003;65659;49.234;-2.094;2023-08-24T00:16:08;5;5;
73241;PMS5003;65659;49.234;-2.094;2023-08-24T00:18:34;4;4;
73241;PMS5003;65659;49.234;-2.094;2023-08-24T00:21:00;2;2;
73241;PMS5003;65659;49.234;-2.094;2023-08-24T00:23:25;2;2;
73241;PMS5003;65659;49.234;-2.094;2023-08-24T00:25:51;2;2;
73241;PMS5003;65659;49.234;-2.094;2023-08-24T00:28:17;3;3;
73241;PMS5003;65659;49.234;-2.094;2023-08-24T00:30:42;3;3;
73241;PMS5003;65659;49.234;-2.094;2023-08-24T00:33:08;3;3;
73241;PMS5003;65659;49.234;-2.094;2023-08-24T00:35:34;2;2;
73241;PMS5003;65659;49.234;-2.094;2023-08-24T00:37:59;4;4;
73241;PMS5003;65659;49.234;-2.094;2023-08-24T00:40:25;1;1;
73241;PMS5003;65659;49.234;-2.094;2023-08-24T00:42:51;2;2;
73241;PMS5003;65659;49.234;-2.094;2023-08-24T00:45:17;4;4;
73241;PMS5003;65659;49.234;-2.094;2023-08-24T00:47:43;4;4;
73241;PMS5003;65659;49.234;-2.094;2023-08-24T00:50:08;3;3;
73241;PMS5003;65659;49.234;-2.094;2023-08-24T00:52:35;4;3;
73241;PMS5003;65659;49.234;-2.094;2023-08-24T00:54:59;3;3;
73241;PMS5003;65659;49.234;-2.094;2023-08-24T00:57:25;3;3;
73241;PMS5003;65659;49.234;-2.094;2023-08-24T00:59:51;2;2;
73241;PMS5003;65659;49.234;-2.094;2023-08-24T01:02:17;3;3;
73241;PMS5003;65659;49.234;-2.094;2023-08-24T01:04:42;4;3;
73241;PMS5003;65659;49.234;-2.094;2023-08-24T01:07:08;3;2;
73241;PMS5003;65659;49.234;-2.094;2023-08-24T01:09:34;3;3;
73241;PMS5003;65659;49.234;-2.094;2023-08-24T01:12:00;2;2;
73241;PMS5003;65659;49.234;-2.094;2023-08-24T01:14:29;3;3;
73241;PMS5003;65659;49.234;-2.094;2023-08-24T01:16:51;3;3;
73241;PMS5003;65659;49.234;-2.094;2023-08-24T01:19:21;4;3;
73241;PMS5003;65659;49.234;-2.094;2023-08-24T01:21:42;4;4;
73241;PMS5003;65659;49.234;-2.094;2023-08-24T01:24:09;3;3;
73241;PMS5003;65659;49.234;-2.094;2023-08-24T01:26:34;3;3;
73241;PMS5003;65659;49.234;-2.094;2023-08-24T01:28:59;6;6;
73241;PMS5003;65659;49.234;-2.094;2023-08-24T01:31:25;4;4;
73241;PMS5003;65659;49.234;-2.094;2023-08-24T01:33:51;3;3;
73241;PMS5003;65659;49.234;-2.094;2023-08-24T01:36:16;3;3;
73241;PMS5003;65659;49.234;-2.094;2023-08-24T01:38:42;3;3;
73241;PMS5003;65659;49.234;-2.094;2023-08-24T01:41:09;3;3;
73241;PMS5003;65659;49.234;-2.094;2023-08-24T01:43:34;5;5;
73241;PMS5003;65659;49.234;-2.094;2023-08-24T01:45:59;3;3;
73241;PMS5003;65659;49.234;-2.094;2023-08-24T01:48:25;3;3;
73241;PMS5003;65659;49.234;-2.094;2023-08-24T01:50:51;3;3;
73241;PMS5003;65659;49.234;-2.094;2023-08-24T01:53:16;3;3;
73241;PMS5003;65659;49.234;-2.094;2023-08-24T01:55:42;4;4;
73241;PMS5003;65659;49.234;-2.094;2023-08-24T01:58:08;2;2;
73241;PMS5003;65659;49.234;-2.094;2023-08-24T02:00:33;5;5;
73241;PMS5003;65659;49.234;-2.094;2023-08-24T02:02:59;4;4;
73241;PMS5003;65659;49.234;-2.094;2023-08-24T02:05:24;2;2;
73241;PMS5003;65659;49.234;-2.094;2023-08-24T02:07:50;3;3;
73241;PMS5003;65659;49.234;-2.094;2023-08-24T02:10:16;5;5;
73241;PMS5003;65659;49.234;-2.094;2023-08-24T02:12:42;4;4;
73241;PMS5003;65659;49.234;-2.094;2023-08-24T02:15:08;5;5;
73241;PMS5003;65659;49.234;-2.094;2023-08-24T02:17:33;5;5;
73241;PMS5003;65659;49.234;-2.094;2023-08-24T02:19:59;3;3;
73241;PMS5003;65659;49.234;-2.094;2023-08-24T02:22:24;2;2;
73241;PMS5003;65659;49.234;-2.094;2023-08-24T02:24:50;4;4;
73241;PMS5003;65659;49.234;-2.094;2023-08-24T02:27:16;5;5;
73241;PMS5003;65659;49.234;-2.094;2023-08-24T02:29:41;4;4;
73241;PMS5003;65659;49.234;-2.094;2023-08-24T02:32:07;4;4;
73241;PMS5003;65659;49.234;-2.094;2023-08-24T02:34:33;8;7;
73241;PMS5003;65659;49.234;-2.094;2023-08-24T02:36:58;5;5;
73241;PMS5003;65659;49.234;-2.094;2023-08-24T02:39:24;4;4;
73241;PMS5003;65659;49.234;-2.094;2023-08-24T02:41:50;6;5;
73241;PMS5003;65659;49.234;-2.094;2023-08-24T02:44:15;6;6;
73241;PMS5003;65659;49.234;-2.094;2023-08-24T02:46:43;5;5;
73241;PMS5003;65659;49.234;-2.094;2023-08-24T02:49:07;6;5;
73241;PMS5003;65659;49.234;-2.094;2023-08-24T02:51:32;7;6;
73241;PMS5003;65659;49.234;-2.094;2023-08-24T02:53:58;7;7;
73241;PMS5003;65659;49.234;-2.094;2023-08-24T02:56:24;4;4;
73241;PMS5003;65659;49.234;-2.094;2023-08-24T02:58:49;5;5;
73241;PMS5003;65659;49.234;-2.094;2023-08-24T03:01:15;5;5;
73241;PMS5003;65659;49.234;-2.094;2023-08-24T03:03:41;5;4;
73241;PMS5003;65659;49.234;-2.094;2023-08-24T03:06:07;4;4;
73241;PMS5003;65659;49.234;-2.094;2023-08-24T03:08:32;5;5;
73241;PMS5003;65659;49.234;-2.094;2023-08-24T03:10:58;4;4;
73241;PMS5003;65659;49.234;-2.094;2023-08-24T03:13:23;7;6;
73241;PMS5003;65659;49.234;-2.094;2023-08-24T03:15:49;5;5;
73241;PMS5003;65659;49.234;-2.094;2023-08-24T03:18:14;5;5;
73241;PMS5003;65659;49.234;-2.094;2023-08-24T03:20:39;4;4;
73241;PMS5003;65659;49.234;-2.094;2023-08-24T03:23:05;5;4;
73241;PMS5003;65659;49.234;-2.094;2023-08-24T03:25:34;4;4;
73241;PMS5003;65659;49.234;-2.094;2023-08-24T03:27:56;7;7;
73241;PMS5003;65659;49.234;-2.094;2023-08-24T03:30:22;5;5;
73241;PMS5003;65659;49.234;-2.094;2023-08-24T03:32:48;4;4;
73241;PMS5003;65659;49.234;-2.094;2023-08-24T03:35:14;6;5;
73241;PMS5003;65659;49.234;-2.094;2023-08-24T03:37:39;3;3;
73241;PMS5003;65659;49.234;-2.094;2023-08-24T03:40:05;5;5;
73241;PMS5003;65659;49.234;-2.094;2023-08-24T03:42:31;7;6;
73241;PMS5003;65659;49.234;-2.094;2023-08-24T03:44:56;5;5;
73241;PMS5003;65659;49.234;-2.094;2023-08-24T03:47:22;4;4;
73241;PMS5003;65659;49.234;-2.094;2023-08-24T03:49:48;7;6;
73241;PMS5003;65659;49.234;-2.094;2023-08-24T03:52:13;7;6;
73241;PMS5003;65659;49.234;-2.094;2023-08-24T03:54:39;6;6;
73241;PMS5003;65659;49.234;-2.094;2023-08-24T03:57:05;4;4;
73241;PMS5003;65659;49.234;-2.094;2023-08-24T03:59:30;5;5;
73241;PMS5003;65659;49.234;-2.094;2023-08-24T04:01:56;7;6;
73241;PMS5003;65659;49.234;-2.094;2023-08-24T04:04:22;6;6;
73241;PMS5003;65659;49.234;-2.094;2023-08-24T04:06:47;6;6;
73241;PMS5003;65659;49.234;-2.094;2023-08-24T04:09:13;5;5;
73241;PMS5003;65659;49.234;-2.094;2023-08-24T04:11:39;6;6;
73241;PMS5003;65659;49.234;-2.094;2023-08-24T04:14:04;7;7;
73241;PMS5003;65659;49.234;-2.094;2023-08-24T04:16:30;5;4;
73241;PMS5003;65659;49.234;-2.094;2023-08-24T04:18:56;8;8;
73241;PMS5003;65659;49.234;-2.094;2023-08-24T04:21:21;6;6;
73241;PMS5003;65659;49.234;-2.094;2023-08-24T04:23:46;7;7;
73241;PMS5003;65659;49.234;-2.094;2023-08-24T04:26:12;8;8;
73241;PMS5003;65659;49.234;-2.094;2023-08-24T04:28:38;6;6;
73241;PMS5003;65659;49.234;-2.094;2023-08-24T04:31:04;7;6;
73241;PMS5003;65659;49.234;-2.094;2023-08-24T04:33:29;6;5;
73241;PMS5003;65659;49.234;-2.094;2023-08-24T04:35:54;8;7;
73241;PMS5003;65659;49.234;-2.094;2023-08-24T04:38:20;7;6;
73241;PMS5003;65659;49.234;-2.094;2023-08-24T04:40:47;7;6;
73241;PMS5003;65659;49.234;-2.094;2023-08-24T04:43:11;7;6;
73241;PMS5003;65659;49.234;-2.094;2023-08-24T04:45:37;6;5;
73241;PMS5003;65659;49.234;-2.094;2023-08-24T04:48:03;7;7;
73241;PMS5003;65659;49.234;-2.094;2023-08-24T04:50:28;6;6;
73241;PMS5003;65659;49.234;-2.094;2023-08-24T04:52:54;7;7;
73241;PMS5003;65659;49.234;-2.094;2023-08-24T04:55:19;7;6;
73241;PMS5003;65659;49.234;-2.094;2023-08-24T04:57:45;11;11;
73241;PMS5003;65659;49.234;-2.094;2023-08-24T05:00:11;10;10;
73241;PMS5003;65659;49.234;-2.094;2023-08-24T05:02:36;7;7;
73241;PMS5003;65659;49.234;-2.094;2023-08-24T05:05:02;6;6;
73241;PMS5003;65659;49.234;-2.094;2023-08-24T05:07:28;6;5;
73241;PMS5003;65659;49.234;-2.094;2023-08-24T05:09:53;10;8;
73241;PMS5003;65659;49.234;-2.094;2023-08-24T05:12:19;9;9;
73241;PMS5003;65659;49.234;-2.094;2023-08-24T05:14:44;8;7;
73241;PMS5003;65659;49.234;-2.094;2023-08-24T05:17:10;6;6;
73241;PMS5003;65659;49.234;-2.094;2023-08-24T05:19:36;6;6;
73241;PMS5003;65659;49.234;-2.094;2023-08-24T05:22:01;8;7;
73241;PMS5003;65659;49.234;-2.094;2023-08-24T05:24:27;6;6;
73241;PMS5003;65659;49.234;-2.094;2023-08-24T05:26:52;7;7;
73241;PMS5003;65659;49.234;-2.094;2023-08-24T05:29:18;8;7;
73241;PMS5003;65659;49.234;-2.094;2023-08-24T05:31:43;9;9;
73241;PMS5003;65659;49.234;-2.094;2023-08-24T05:34:09;7;7;
73241;PMS5003;65659;49.234;-2.094;2023-08-24T05:36:35;7;7;
73241;PMS5003;65659;49.234;-2.094;2023-08-24T05:39:00;8;7;
73241;PMS5003;65659;49.234;-2.094;2023-08-24T05:41:26;7;7;
73241;PMS5003;65659;49.234;-2.094;2023-08-24T05:43:52;6;6;
73241;PMS5003;65659;49.234;-2.094;2023-08-24T05:46:17;5;5;
73241;PMS5003;65659;49.234;-2.094;2023-08-24T05:48:43;6;6;
73241;PMS5003;65659;49.234;-2.094;2023-08-24T05:51:09;6;6;
73241;PMS5003;65659;49.234;-2.094;2023-08-24T05:53:35;7;7;
73241;PMS5003;65659;49.234;-2.094;2023-08-24T05:56:00;5;5;
73241;PMS5003;65659;49.234;-2.094;2023-08-24T05:58:26;6;6;
73241;PMS5003;65659;49.234;-2.094;2023-08-24T06:00:57;7;7;
73241;PMS5003;65659;49.234;-2.094;2023-08-24T06:03:17;6;6;
73241;PMS5003;65659;49.234;-2.094;2023-08-24T06:05:42;5;5;
73241;PMS5003;65659;49.234;-2.094;2023-08-24T06:08:08;5;5;
73241;PMS5003;65659;49.234;-2.094;2023-08-24T06:10:34;5;5;
73241;PMS5003;65659;49.234;-2.094;2023-08-24T06:12:59;7;5;
73241;PMS5003;65659;49.234;-2.094;2023-08-24T06:15:25;5;5;
73241;PMS5003;65659;49.234;-2.094;2023-08-24T06:17:50;5;5;
73241;PMS5003;65659;49.234;-2.094;2023-08-24T06:20:16;4;4;
73241;PMS5003;65659;49.234;-2.094;2023-08-24T06:22:42;5;5;
73241;PMS5003;65659;49.234;-2.094;2023-08-24T06:25:08;8;7;
73241;PMS5003;65659;49.234;-2.094;2023-08-24T06:27:33;6;5;
73241;PMS5003;65659;49.234;-2.094;2023-08-24T06:29:59;7;7;
73241;PMS5003;65659;49.234;-2.094;2023-08-24T06:32:24;5;5;
73241;PMS5003;65659;49.234;-2.094;2023-08-24T06:34:50;4;4;
73241;PMS5003;65659;49.234;-2.094;2023-08-24T06:37:16;8;7;
73241;PMS5003;65659;49.234;-2.094;2023-08-24T06:39:41;16;14;
73241;PMS5003;65659;49.234;-2.094;2023-08-24T06:42:07;11;11;
73241;PMS5003;65659;49.234;-2.094;2023-08-24T06:44:33;8;8;
73241;PMS5003;65659;49.234;-2.094;2023-08-24T06:46:58;7;7;
73241;PMS5003;65659;49.234;-2.094;2023-08-24T06:49:24;14;13;
73241;PMS5003;65659;49.234;-2.094;2023-08-24T06:51:49;9;7;
73241;PMS5003;65659;49.234;-2.094;2023-08-24T06:56:40;8;8;
73241;PMS5003;65659;49.234;-2.094;2023-08-24T06:59:06;6;6;
73241;PMS5003;65659;49.234;-2.094;2023-08-24T07:01:32;6;6;
73241;PMS5003;65659;49.234;-2.094;2023-08-24T07:03:57;6;6;
73241;PMS5003;65659;49.234;-2.094;2023-08-24T07:06:23;7;6;
73241;PMS5003;65659;49.234;-2.094;2023-08-24T07:08:48;7;7;
73241;PMS5003;65659;49.234;-2.094;2023-08-24T07:11:16;7;7;
73241;PMS5003;65659;49.234;-2.094;2023-08-24T07:13:40;4;4;
73241;PMS5003;65659;49.234;-2.094;2023-08-24T07:16:11;11;11;
73241;PMS5003;65659;49.234;-2.094;2023-08-24T07:18:31;7;7;
73241;PMS5003;65659;49.234;-2.094;2023-08-24T07:20:57;9;8;
73241;PMS5003;65659;49.234;-2.094;2023-08-24T07:23:23;7;7;
73241;PMS5003;65659;49.234;-2.094;2023-08-24T07:25:49;5;5;
73241;PMS5003;65659;49.234;-2.094;2023-08-24T07:28:14;11;11;
73241;PMS5003;65659;49.234;-2.094;2023-08-24T07:30:40;8;8;
73241;PMS5003;65659;49.234;-2.094;2023-08-24T07:33:05;6;6;
73241;PMS5003;65659;49.234;-2.094;2023-08-24T07:35:31;9;9;
73241;PMS5003;65659;49.234;-2.094;2023-08-24T07:37:57;7;7;
73241;PMS5003;65659;49.234;-2.094;2023-08-24T07:40:22;9;9;
73241;PMS5003;65659;49.234;-2.094;2023-08-24T07:42:48;9;8;
73241;PMS5003;65659;49.234;-2.094;2023-08-24T07:45:17;10;9;
73241;PMS5003;65659;49.234;-2.094;2023-08-24T07:47:39;7;7;
73241;PMS5003;65659;49.234;-2.094;2023-08-24T07:50:21;8;7;
73241;PMS5003;65659;49.234;-2.094;2023-08-24T07:52:38;7;6;
73241;PMS5003;65659;49.234;-2.094;2023-08-24T07:55:02;9;9;
73241;PMS5003;65659;49.234;-2.094;2023-08-24T07:57:21;10;10;
73241;PMS5003;65659;49.234;-2.094;2023-08-24T07:59:47;7;6;
73241;PMS5003;65659;49.234;-2.094;2023-08-24T08:02:12;7;7;
73241;PMS5003;65659;49.234;-2.094;2023-08-24T08:04:40;10;9;
73241;PMS5003;65659;49.234;-2.094;2023-08-24T08:07:04;12;10;
73241;PMS5003;65659;49.234;-2.094;2023-08-24T08:09:29;8;8;
73241;PMS5003;65659;49.234;-2.094;2023-08-24T08:11:55;7;7;
73241;PMS5003;65659;49.234;-2.094;2023-08-24T08:14:21;8;8;
73241;PMS5003;65659;49.234;-2.094;2023-08-24T08:16:47;7;7;
73241;PMS5003;65659;49.234;-2.094;2023-08-24T08:19:12;8;7;
73241;PMS5003;65659;49.234;-2.094;2023-08-24T08:21:38;7;7;
73241;PMS5003;65659;49.234;-2.094;2023-08-24T08:24:05;6;6;
73241;PMS5003;65659;49.234;-2.094;2023-08-24T08:26:29;7;6;
73241;PMS5003;65659;49.234;-2.094;2023-08-24T08:28:55;6;6;
73241;PMS5003;65659;49.234;-2.094;2023-08-24T08:31:22;6;6;
73241;PMS5003;65659;49.234;-2.094;2023-08-24T08:33:46;8;7;
73241;PMS5003;65659;49.234;-2.094;2023-08-24T08:36:12;7;7;
73241;PMS5003;65659;49.234;-2.094;2023-08-24T08:38:38;6;6;
73241;PMS5003;65659;49.234;-2.094;2023-08-24T08:41:03;6;6;
73241;PMS5003;65659;49.234;-2.094;2023-08-24T08:43:28;13;12;
73241;PMS5003;65659;49.234;-2.094;2023-08-24T08:45:55;7;6;
73241;PMS5003;65659;49.234;-2.094;2023-08-24T08:48:20;9;8;
73241;PMS5003;65659;49.234;-2.094;2023-08-24T08:50:46;7;7;
73241;PMS5003;65659;49.234;-2.094;2023-08-24T08:53:10;11;11;
73241;PMS5003;65659;49.234;-2.094;2023-08-24T08:55:36;11;11;
73241;PMS5003;65659;49.234;-2.094;2023-08-24T08:58:03;9;9;
73241;PMS5003;65659;49.234;-2.094;2023-08-24T09:00:28;9;9;
73241;PMS5003;65659;49.234;-2.094;2023-08-24T09:02:53;9;9;
73241;PMS5003;65659;49.234;-2.094;2023-08-24T09:05:20;6;6;
73241;PMS5003;65659;49.234;-2.094;2023-08-24T09:07:45;8;8;
73241;PMS5003;65659;49.234;-2.094;2023-08-24T09:10:13;7;6;
73241;PMS5003;65659;49.234;-2.094;2023-08-24T09:12:39;7;7;
73241;PMS5003;65659;49.234;-2.094;2023-08-24T09:15:05;6;6;
73241;PMS5003;65659;49.234;-2.094;2023-08-24T09:17:29;6;6;
73241;PMS5003;65659;49.234;-2.094;2023-08-24T09:19:58;8;8;
73241;PMS5003;65659;49.234;-2.094;2023-08-24T09:22:21;10;9;
73241;PMS5003;65659;49.234;-2.094;2023-08-24T09:24:48;12;12;
73241;PMS5003;65659;49.234;-2.094;2023-08-24T09:27:16;12;11;
73241;PMS5003;65659;49.234;-2.094;2023-08-24T09:29:38;9;9;
73241;PMS5003;65659;49.234;-2.094;2023-08-24T09:32:03;10;9;
73241;PMS5003;65659;49.234;-2.094;2023-08-24T09:34:28;16;15;
73241;PMS5003;65659;49.234;-2.094;2023-08-24T09:36:55;13;12;
73241;PMS5003;65659;49.234;-2.094;2023-08-24T09:39:19;10;10;
73241;PMS5003;65659;49.234;-2.094;2023-08-24T09:41:46;10;9;
73241;PMS5003;65659;49.234;-2.094;2023-08-24T09:44:13;10;9;
73241;PMS5003;65659;49.234;-2.094;2023-08-24T09:46:43;9;8;
73241;PMS5003;65659;49.234;-2.094;2023-08-24T09:49:01;7;7;
73241;PMS5003;65659;49.234;-2.094;2023-08-24T09:51:40;7;7;
73241;PMS5003;65659;49.234;-2.094;2023-08-24T09:53:51;8;7;
73241;PMS5003;65659;49.234;-2.094;2023-08-24T09:56:22;6;5;
73241;PMS5003;65659;49.234;-2.094;2023-08-24T09:58:44;8;8;
73241;PMS5003;65659;49.234;-2.094;2023-08-24T10:01:12;8;8;
73241;PMS5003;65659;49.234;-2.094;2023-08-24T10:03:34;8;8;
73241;PMS5003;65659;49.234;-2.094;2023-08-24T10:10:58;6;6;
73241;PMS5003;65659;49.234;-2.094;2023-08-24T10:13:22;8;8;
73241;PMS5003;65659;49.234;-2.094;2023-08-24T10:15:44;8;8;
73241;PMS5003;65659;49.234;-2.094;2023-08-24T10:18:13;6;6;
73241;PMS5003;65659;49.234;-2.094;2023-08-24T10:20:32;7;7;
73241;PMS5003;65659;49.234;-2.094;2023-08-24T10:22:57;6;6;
73241;PMS5003;65659;49.234;-2.094;2023-08-24T10:25:23;9;9;
73241;PMS5003;65659;49.234;-2.094;2023-08-24T10:30:15;6;6;
73241;PMS5003;65659;49.234;-2.094;2023-08-24T10:32:40;7;7;
73241;PMS5003;65659;49.234;-2.094;2023-08-24T10:35:07;8;8;
73241;PMS5003;65659;49.234;-2.094;2023-08-24T10:37:32;9;8;
73241;PMS5003;65659;49.234;-2.094;2023-08-24T10:39:57;8;7;
73241;PMS5003;65659;49.234;-2.094;2023-08-24T10:42:23;8;8;
73241;PMS5003;65659;49.234;-2.094;2023-08-24T10:44:51;7;7;
73241;PMS5003;65659;49.234;-2.094;2023-08-24T10:47:14;8;7;
73241;PMS5003;65659;49.234;-2.094;2023-08-24T10:49:41;5;5;
73241;PMS5003;65659;49.234;-2.094;2023-08-24T10:54:31;9;9;
73241;PMS5003;65659;49.234;-2.094;2023-08-24T10:56:57;9;8;
73241;PMS5003;65659;49.234;-2.094;2023-08-24T10:59:23;7;7;
73241;PMS5003;65659;49.234;-2.094;2023-08-24T11:04:15;9;9;
73241;PMS5003;65659;49.234;-2.094;2023-08-24T11:09:08;9;9;
73241;PMS5003;65659;49.234;-2.094;2023-08-24T11:11:32;7;6;
73241;PMS5003;65659;49.234;-2.094;2023-08-24T11:18:47;8;8;
73241;PMS5003;65659;49.234;-2.094;2023-08-24T11:21:13;8;8;
73241;PMS5003;65659;49.234;-2.094;2023-08-24T11:23:38;9;8;
73241;PMS5003;65659;49.234;-2.094;2023-08-24T11:26:05;8;7;
73241;PMS5003;65659;49.234;-2.094;2023-08-24T11:28:30;8;8;
73241;PMS5003;65659;49.234;-2.094;2023-08-24T11:30:55;8;8;
73241;PMS5003;65659;49.234;-2.094;2023-08-24T11:33:28;10;10;
73241;PMS5003;65659;49.234;-2.094;2023-08-24T11:35:47;7;7;
73241;PMS5003;65659;49.234;-2.094;2023-08-24T11:38:11;8;7;
73241;PMS5003;65659;49.234;-2.094;2023-08-24T11:40:38;8;7;
73241;PMS5003;65659;49.234;-2.094;2023-08-24T11:43:03;7;7;
73241;PMS5003;65659;49.234;-2.094;2023-08-24T11:45:35;10;9;
73241;PMS5003;65659;49.234;-2.094;2023-08-24T11:47:54;9;9;
73241;PMS5003;65659;49.234;-2.094;2023-08-24T11:50:20;9;9;
73241;PMS5003;65659;49.234;-2.094;2023-08-24T11:52:54;8;7;
73241;PMS5003;65659;49.234;-2.094;2023-08-24T11:55:12;8;8;
73241;PMS5003;65659;49.234;-2.094;2023-08-24T11:57:38;8;8;
73241;PMS5003;65659;49.234;-2.094;2023-08-24T12:00:09;8;8;
73241;PMS5003;65659;49.234;-2.094;2023-08-24T12:02:30;8;8;
73241;PMS5003;65659;49.234;-2.094;2023-08-24T12:04:55;7;7;
73241;PMS5003;65659;49.234;-2.094;2023-08-24T12:07:20;9;8;
73241;PMS5003;65659;49.234;-2.094;2023-08-24T12:09:45;8;8;
73241;PMS5003;65659;49.234;-2.094;2023-08-24T12:12:13;7;7;
73241;PMS5003;65659;49.234;-2.094;2023-08-24T12:14:41;10;8;
73241;PMS5003;65659;49.234;-2.094;2023-08-24T12:19:27;9;9;
73241;PMS5003;65659;49.234;-2.094;2023-08-24T12:21:52;9;8;
73241;PMS5003;65659;49.234;-2.094;2023-08-24T12:24:17;8;8;
73241;PMS5003;65659;49.234;-2.094;2023-08-24T12:26:43;12;11;
73241;PMS5003;65659;49.234;-2.094;2023-08-24T12:29:08;12;11;
73241;PMS5003;65659;49.234;-2.094;2023-08-24T12:31:33;8;7;
73241;PMS5003;65659;49.234;-2.094;2023-08-24T12:33:59;13;13;
73241;PMS5003;65659;49.234;-2.094;2023-08-24T12:36:25;9;8;
73241;PMS5003;65659;49.234;-2.094;2023-08-24T12:38:50;9;8;
73241;PMS5003;65659;49.234;-2.094;2023-08-24T12:41:17;11;10;
73241;PMS5003;65659;49.234;-2.094;2023-08-24T12:43:42;8;7;
73241;PMS5003;65659;49.234;-2.094;2023-08-24T12:46:07;8;8;
73241;PMS5003;65659;49.234;-2.094;2023-08-24T12:48:32;8;7;
73241;PMS5003;65659;49.234;-2.094;2023-08-24T12:50:58;9;9;
73241;PMS5003;65659;49.234;-2.094;2023-08-24T12:53:23;7;7;
73241;PMS5003;65659;49.234;-2.094;2023-08-24T12:55:49;8;8;
73241;PMS5003;65659;49.234;-2.094;2023-08-24T12:58:14;6;6;
73241;PMS5003;65659;49.234;-2.094;2023-08-24T13:00:40;8;7;
73241;PMS5003;65659;49.234;-2.094;2023-08-24T13:03:05;6;6;
73241;PMS5003;65659;49.234;-2.094;2023-08-24T13:05:31;5;5;
73241;PMS5003;65659;49.234;-2.094;2023-08-24T13:07:57;9;9;
73241;PMS5003;65659;49.234;-2.094;2023-08-24T13:10:22;9;8;
73241;PMS5003;65659;49.234;-2.094;2023-08-24T13:12:47;6;5;
73241;PMS5003;65659;49.234;-2.094;2023-08-24T13:15:13;5;5;
73241;PMS5003;65659;49.234;-2.094;2023-08-24T13:17:39;4;4;
73241;PMS5003;65659;49.234;-2.094;2023-08-24T13:20:05;4;4;
73241;PMS5003;65659;49.234;-2.094;2023-08-24T13:22:31;3;3;
73241;PMS5003;65659;49.234;-2.094;2023-08-24T13:24:55;6;6;
73241;PMS5003;65659;49.234;-2.094;2023-08-24T13:27:21;4;4;
73241;PMS5003;65659;49.234;-2.094;2023-08-24T13:29:47;6;5;
73241;PMS5003;65659;49.234;-2.094;2023-08-24T13:32:13;6;6;
73241;PMS5003;65659;49.234;-2.094;2023-08-24T13:34:38;4;3;
73241;PMS5003;65659;49.234;-2.094;2023-08-24T13:37:03;6;5;
73241;PMS5003;65659;49.234;-2.094;2023-08-24T13:39:31;5;5;
73241;PMS5003;65659;49.234;-2.094;2023-08-24T13:41:55;3;3;
73241;PMS5003;65659;49.234;-2.094;2023-08-24T13:44:20;5;5;
73241;PMS5003;65659;49.234;-2.094;2023-08-24T13:46:46;6;6;
73241;PMS5003;65659;49.234;-2.094;2023-08-24T13:49:11;6;6;
73241;PMS5003;65659;49.234;-2.094;2023-08-24T13:51:37;4;3;
73241;PMS5003;65659;49.234;-2.094;2023-08-24T13:54:08;3;3;
73241;PMS5003;65659;49.234;-2.094;2023-08-24T13:56:28;4;3;
73241;PMS5003;65659;49.234;-2.094;2023-08-24T13:58:54;7;7;
73241;PMS5003;65659;49.234;-2.094;2023-08-24T14:01:19;8;8;
73241;PMS5003;65659;49.234;-2.094;2023-08-24T14:03:44;5;5;
73241;PMS5003;65659;49.234;-2.094;2023-08-24T14:06:10;4;4;
73241;PMS5003;65659;49.234;-2.094;2023-08-24T14:08:36;4;4;
73241;PMS5003;65659;49.234;-2.094;2023-08-24T14:11:01;3;3;
73241;PMS5003;65659;49.234;-2.094;2023-08-24T14:13:27;5;4;
73241;PMS5003;65659;49.234;-2.094;2023-08-24T14:15:52;4;4;
73241;PMS5003;65659;49.234;-2.094;2023-08-24T14:18:18;5;3;
73241;PMS5003;65659;49.234;-2.094;2023-08-24T14:20:44;4;4;
73241;PMS5003;65659;49.234;-2.094;2023-08-24T14:23:09;4;4;
73241;PMS5003;65659;49.234;-2.094;2023-08-24T14:25:35;4;4;
73241;PMS5003;65659;49.234;-2.094;2023-08-24T14:28:00;3;3;
73241;PMS5003;65659;49.234;-2.094;2023-08-24T14:30:26;3;3;
73241;PMS5003;65659;49.234;-2.094;2023-08-24T14:32:51;4;4;
73241;PMS5003;65659;49.234;-2.094;2023-08-24T14:35:17;5;4;
73241;PMS5003;65659;49.234;-2.094;2023-08-24T14:37:43;5;4;
73241;PMS5003;65659;49.234;-2.094;2023-08-24T14:40:08;4;4;
73241;PMS5003;65659;49.234;-2.094;2023-08-24T14:42:34;5;5;
73241;PMS5003;65659;49.234;-2.094;2023-08-24T14:44:59;4;4;
73241;PMS5003;65659;49.234;-2.094;2023-08-24T14:47:25;4;4;
73241;PMS5003;65659;49.234;-2.094;2023-08-24T14:49:51;4;4;
73241;PMS5003;65659;49.234;-2.094;2023-08-24T14:52:16;4;3;
73241;PMS5003;65659;49.234;-2.094;2023-08-24T14:54:42;4;4;
73241;PMS5003;65659;49.234;-2.094;2023-08-24T14:57:08;3;3;
73241;PMS5003;65659;49.234;-2.094;2023-08-24T14:59:34;5;5;
73241;PMS5003;65659;49.234;-2.094;2023-08-24T15:02:00;9;6;
73241;PMS5003;65659;49.234;-2.094;2023-08-24T15:04:24;7;7;
73241;PMS5003;65659;49.234;-2.094;2023-08-24T15:06:51;5;5;
73241;PMS5003;65659;49.234;-2.094;2023-08-24T15:09:15;5;5;
73241;PMS5003;65659;49.234;-2.094;2023-08-24T15:11:41;11;11;
73241;PMS5003;65659;49.234;-2.094;2023-08-24T15:14:07;5;4;
73241;PMS5003;65659;49.234;-2.094;2023-08-24T15:16:32;4;4;
73241;PMS5003;65659;49.234;-2.094;2023-08-24T15:18:58;4;4;
73241;PMS5003;65659;49.234;-2.094;2023-08-24T15:21:24;2;2;
73241;PMS5003;65659;49.234;-2.094;2023-08-24T15:23:49;4;4;
73241;PMS5003;65659;49.234;-2.094;2023-08-24T15:26:15;3;3;
73241;PMS5003;65659;49.234;-2.094;2023-08-24T15:31:06;3;3;
73241;PMS5003;65659;49.234;-2.094;2023-08-24T15:33:32;4;4;
73241;PMS5003;65659;49.234;-2.094;2023-08-24T15:35:57;6;5;
73241;PMS5003;65659;49.234;-2.094;2023-08-24T15:38:23;4;4;
73241;PMS5003;65659;49.234;-2.094;2023-08-24T15:40:51;3;3;
73241;PMS5003;65659;49.234;-2.094;2023-08-24T15:43:14;5;4;
73241;PMS5003;65659;49.234;-2.094;2023-08-24T15:45:39;5;5;
73241;PMS5003;65659;49.234;-2.094;2023-08-24T15:48:05;5;4;
73241;PMS5003;65659;49.234;-2.094;2023-08-24T15:50:31;4;3;
73241;PMS5003;65659;49.234;-2.094;2023-08-24T15:52:57;4;4;
73241;PMS5003;65659;49.234;-2.094;2023-08-24T15:55:22;4;4;
73241;PMS5003;65659;49.234;-2.094;2023-08-24T15:57:48;3;3;
73241;PMS5003;65659;49.234;-2.094;2023-08-24T16:00:14;3;3;
73241;PMS5003;65659;49.234;-2.094;2023-08-24T16:02:39;6;5;
73241;PMS5003;65659;49.234;-2.094;2023-08-24T16:05:05;4;4;
73241;PMS5003;65659;49.234;-2.094;2023-08-24T16:07:30;3;3;
73241;PMS5003;65659;49.234;-2.094;2023-08-24T16:09:56;5;5;
73241;PMS5003;65659;49.234;-2.094;2023-08-24T16:12:21;3;3;
73241;PMS5003;65659;49.234;-2.094;2023-08-24T16:14:47;5;5;
73241;PMS5003;65659;49.234;-2.094;2023-08-24T16:17:13;3;3;
73241;PMS5003;65659;49.234;-2.094;2023-08-24T16:19:38;5;5;
73241;PMS5003;65659;49.234;-2.094;2023-08-24T16:22:04;3;3;
73241;PMS5003;65659;49.234;-2.094;2023-08-24T16:24:29;4;4;
73241;PMS5003;65659;49.234;-2.094;2023-08-24T16:26:55;4;4;
73241;PMS5003;65659;49.234;-2.094;2023-08-24T16:29:21;5;5;
73241;PMS5003;65659;49.234;-2.094;2023-08-24T16:31:46;7;7;
73241;PMS5003;65659;49.234;-2.094;2023-08-24T16:34:12;5;4;
73241;PMS5003;65659;49.234;-2.094;2023-08-24T16:36:37;5;4;
73241;PMS5003;65659;49.234;-2.094;2023-08-24T16:39:03;4;4;
73241;PMS5003;65659;49.234;-2.094;2023-08-24T16:41:29;5;5;
73241;PMS5003;65659;49.234;-2.094;2023-08-24T16:43:54;4;4;
73241;PMS5003;65659;49.234;-2.094;2023-08-24T16:46:20;5;5;